createdAt,value
2017-08-07T00:02:15.060Z,20.44
2017-08-07T00:04:46.986Z,20.45
2017-08-07T00:07:30.767Z,20.45
2017-08-07T00:10:02.594Z,20.41
2017-08-07T00:12:33.675Z,20.42
2017-08-07T00:15:15.463Z,20.41
2017-08-07T00:17:46.562Z,20.35
2017-08-07T00:20:21.342Z,20.34
2017-08-07T00:22:52.474Z,20.23
2017-08-07T00:25:24.355Z,20.24
2017-08-07T00:27:55.435Z,20.22
2017-08-07T00:30:26.491Z,20.22
2017-08-07T00:32:57.876Z,20.22
2017-08-07T00:35:28.938Z,20.16
2017-08-07T00:38:00.785Z,20.15
2017-08-07T00:40:32.398Z,20.13
2017-08-07T00:43:04.532Z,20.11
2017-08-07T00:45:35.796Z,20.09
2017-08-07T00:48:07.073Z,20.09
2017-08-07T00:50:39.129Z,20.07
2017-08-07T00:53:10.213Z,20.05
2017-08-07T00:55:41.288Z,20.00
2017-08-07T00:58:12.930Z,19.94
2017-08-07T01:00:44.876Z,19.92
2017-08-07T01:03:16.643Z,19.86
2017-08-07T01:05:48.263Z,19.84
2017-08-07T01:08:19.387Z,19.80
2017-08-07T01:10:50.443Z,19.80
2017-08-07T01:13:21.927Z,19.78
2017-08-07T01:15:53.001Z,19.75
2017-08-07T01:18:24.096Z,19.65
2017-08-07T01:20:55.146Z,19.61
2017-08-07T01:23:26.216Z,19.58
2017-08-07T01:25:57.478Z,19.56
2017-08-07T01:28:29.300Z,19.52
2017-08-07T01:31:00.722Z,19.50
2017-08-07T01:33:32.341Z,19.52
2017-08-07T01:36:03.949Z,19.47
2017-08-07T01:38:36.023Z,19.42
2017-08-07T01:41:07.098Z,19.43
2017-08-07T01:43:38.146Z,19.42
2017-08-07T01:46:11.020Z,19.39
2017-08-07T01:48:42.110Z,19.37
2017-08-07T01:51:13.851Z,19.38
2017-08-07T01:53:44.943Z,19.34
2017-08-07T01:56:16.054Z,19.29
2017-08-07T01:58:47.146Z,19.25
2017-08-07T02:01:21.355Z,19.24
2017-08-07T02:03:53.365Z,19.21
2017-08-07T02:06:24.922Z,19.15
2017-08-07T02:08:56.909Z,19.15
2017-08-07T02:11:27.950Z,19.12
2017-08-07T02:13:59.135Z,19.13
2017-08-07T02:16:31.424Z,19.09
2017-08-07T02:19:02.464Z,19.03
2017-08-07T02:21:33.491Z,18.99
2017-08-07T02:24:05.955Z,18.95
2017-08-07T02:26:37.620Z,18.89
2017-08-07T02:29:10.812Z,18.90
2017-08-07T02:31:42.150Z,18.90
2017-08-07T02:34:13.309Z,18.89
2017-08-07T02:36:44.312Z,18.87
2017-08-07T02:39:15.379Z,18.86
2017-08-07T02:41:46.404Z,18.79
2017-08-07T02:44:17.564Z,18.76
2017-08-07T02:46:49.654Z,18.74
2017-08-07T02:49:21.492Z,18.72
2017-08-07T02:51:52.736Z,18.62
2017-08-07T02:54:23.776Z,18.57
2017-08-07T02:56:55.113Z,18.57
2017-08-07T02:59:26.162Z,18.57
2017-08-07T03:01:57.227Z,18.58
2017-08-07T03:04:28.294Z,18.55
2017-08-07T03:06:59.343Z,18.56
2017-08-07T03:09:30.403Z,18.50
2017-08-07T03:12:03.253Z,18.49
2017-08-07T03:14:34.578Z,18.46
2017-08-07T03:17:07.053Z,18.41
2017-08-07T03:19:38.141Z,18.36
2017-08-07T03:22:09.279Z,18.34
2017-08-07T03:24:40.398Z,18.32
2017-08-07T03:27:11.466Z,18.34
2017-08-07T03:29:42.545Z,18.32
2017-08-07T03:32:15.334Z,18.30
2017-08-07T03:34:47.302Z,18.29
2017-08-07T03:37:18.409Z,18.29
2017-08-07T03:39:49.521Z,18.28
2017-08-07T03:42:20.614Z,18.26
2017-08-07T03:44:51.658Z,18.25
2017-08-07T03:47:23.176Z,18.26
2017-08-07T03:49:54.221Z,18.25
2017-08-07T03:52:25.255Z,18.25
2017-08-07T03:54:56.317Z,18.24
2017-08-07T03:57:27.342Z,18.25
2017-08-07T03:59:58.612Z,18.23
2017-08-07T04:02:30.837Z,18.24
2017-08-07T04:05:04.367Z,18.23
2017-08-07T04:07:35.469Z,18.17
2017-08-07T04:12:29.375Z,18.10
2017-08-07T04:15:00.800Z,18.15
2017-08-07T04:17:32.329Z,18.15
2017-08-07T04:20:04.005Z,18.12
2017-08-07T04:22:35.091Z,18.11
2017-08-07T04:25:06.169Z,18.11
2017-08-07T04:27:37.231Z,18.12
2017-08-07T04:30:08.612Z,18.12
2017-08-07T04:32:39.667Z,18.10
2017-08-07T04:35:10.716Z,18.09
2017-08-07T04:37:42.403Z,18.08
2017-08-07T04:40:13.427Z,18.08
2017-08-07T04:42:44.504Z,18.12
2017-08-07T04:45:15.859Z,18.20
2017-08-07T04:47:46.914Z,18.22
2017-08-07T04:50:18.013Z,18.22
2017-08-07T04:52:49.526Z,18.26
2017-08-07T04:55:20.551Z,18.30
2017-08-07T04:57:51.607Z,18.31
2017-08-07T05:00:22.921Z,18.39
2017-08-07T05:02:53.978Z,18.37
2017-08-07T05:05:25.028Z,18.44
2017-08-07T05:07:56.545Z,18.55
2017-08-07T05:10:27.558Z,18.61
2017-08-07T05:12:58.645Z,18.69
2017-08-07T05:15:30.018Z,18.70
2017-08-07T05:18:01.039Z,18.77
2017-08-07T05:20:32.329Z,18.89
2017-08-07T05:23:03.409Z,18.96
2017-08-07T05:25:34.517Z,19.09
2017-08-07T05:28:06.834Z,19.24
2017-08-07T05:30:37.850Z,19.39
2017-08-07T05:33:08.995Z,19.50
2017-08-07T05:35:40.457Z,19.63
2017-08-07T05:38:11.568Z,19.78
2017-08-07T05:40:42.675Z,19.93
2017-08-07T05:43:14.196Z,20.09
2017-08-07T05:45:45.214Z,20.20
2017-08-07T05:48:16.540Z,20.33
2017-08-07T05:50:47.616Z,20.46
2017-08-07T05:53:18.628Z,20.53
2017-08-07T05:55:49.646Z,20.70
2017-08-07T05:58:20.690Z,20.84
2017-08-07T06:00:52.125Z,20.97
2017-08-07T06:03:23.190Z,21.08
2017-08-07T06:05:54.344Z,21.20
2017-08-07T06:08:25.809Z,21.31
2017-08-07T06:10:56.875Z,21.42
2017-08-07T06:13:28.248Z,21.54
2017-08-07T06:15:59.288Z,21.59
2017-08-07T06:18:30.314Z,21.64
2017-08-07T06:21:01.697Z,21.74
2017-08-07T06:23:32.770Z,21.86
2017-08-07T06:26:04.272Z,21.89
2017-08-07T06:28:35.771Z,22.06
2017-08-07T06:31:06.828Z,22.20
2017-08-07T06:33:37.854Z,22.27
2017-08-07T06:36:09.225Z,22.39
2017-08-07T06:38:40.304Z,22.53
2017-08-07T06:41:11.419Z,22.61
2017-08-07T06:43:42.513Z,22.79
2017-08-07T06:46:13.584Z,22.87
2017-08-07T06:48:44.960Z,22.97
2017-08-07T06:51:16.018Z,23.03
2017-08-07T06:53:47.030Z,23.05
2017-08-07T06:56:18.074Z,23.12
2017-08-07T06:58:49.154Z,23.17
2017-08-07T07:01:20.567Z,23.20
2017-08-07T07:03:51.619Z,23.25
2017-08-07T07:06:22.922Z,23.28
2017-08-07T07:08:53.942Z,23.25
2017-08-07T07:11:24.928Z,23.29
2017-08-07T07:13:56.444Z,23.14
2017-08-07T07:16:27.476Z,23.13
2017-08-07T07:18:58.485Z,23.16
2017-08-07T07:21:29.982Z,23.30
2017-08-07T07:24:01.040Z,23.46
2017-08-07T07:26:32.056Z,23.46
2017-08-07T07:29:03.420Z,23.36
2017-08-07T07:31:34.951Z,23.33
2017-08-07T07:34:07.251Z,23.48
2017-08-07T07:36:38.267Z,23.51
2017-08-07T07:39:09.320Z,23.53
2017-08-07T07:41:40.335Z,23.53
2017-08-07T07:44:11.400Z,23.61
2017-08-07T07:46:42.839Z,23.71
2017-08-07T07:49:13.887Z,23.75
2017-08-07T07:51:45.016Z,23.86
2017-08-07T07:54:16.474Z,23.97
2017-08-07T07:56:47.504Z,24.03
2017-08-07T07:59:18.829Z,24.07
2017-08-07T08:01:50.121Z,23.87
2017-08-07T08:04:21.194Z,23.86
2017-08-07T08:06:52.884Z,23.96
2017-08-07T08:09:23.900Z,23.96
2017-08-07T08:11:55.180Z,24.04
2017-08-07T08:14:26.627Z,24.07
2017-08-07T08:16:57.615Z,24.11
2017-08-07T08:19:28.679Z,24.20
2017-08-07T08:21:59.692Z,24.31
2017-08-07T08:27:10.824Z,24.30
2017-08-07T08:29:41.855Z,24.31
2017-08-07T08:32:13.310Z,24.37
2017-08-07T08:34:44.322Z,24.48
2017-08-07T08:37:15.355Z,24.64
2017-08-07T08:39:46.738Z,24.68
2017-08-07T08:42:17.751Z,24.67
2017-08-07T08:44:48.787Z,24.56
2017-08-07T08:47:20.140Z,24.69
2017-08-07T08:49:51.139Z,24.54
2017-08-07T08:52:22.431Z,24.54
2017-08-07T08:54:53.446Z,24.69
2017-08-07T08:57:24.504Z,24.62
2017-08-07T08:59:56.799Z,24.66
2017-08-07T09:02:27.835Z,24.57
2017-08-07T09:04:58.871Z,24.71
2017-08-07T09:07:30.248Z,24.84
2017-08-07T09:10:02.665Z,24.92
2017-08-07T09:12:33.741Z,25.08
2017-08-07T09:15:04.747Z,25.12
2017-08-07T09:17:38.656Z,25.25
2017-08-07T09:20:09.684Z,25.35
2017-08-07T09:22:40.702Z,25.41
2017-08-07T09:25:12.498Z,25.49
2017-08-07T09:27:43.507Z,25.66
2017-08-07T09:30:14.988Z,25.71
2017-08-07T09:32:46.474Z,25.78
2017-08-07T09:35:17.480Z,25.82
2017-08-07T09:37:48.500Z,25.93
2017-08-07T09:40:19.895Z,26.12
2017-08-07T09:42:50.925Z,26.13
2017-08-07T09:45:21.951Z,26.37
2017-08-07T09:47:54.473Z,26.41
2017-08-07T09:50:25.503Z,26.54
2017-08-07T09:52:56.563Z,26.65
2017-08-07T09:55:27.883Z,26.65
2017-08-07T09:57:58.920Z,26.68
2017-08-07T10:00:30.214Z,26.83
2017-08-07T10:03:01.256Z,27.17
2017-08-07T10:05:32.354Z,27.44
2017-08-07T10:08:04.228Z,27.94
2017-08-07T10:10:35.284Z,28.21
2017-08-07T10:13:06.325Z,28.23
2017-08-07T10:15:37.751Z,28.20
2017-08-07T10:18:08.792Z,28.30
2017-08-07T10:20:39.845Z,28.25
2017-08-07T10:23:11.312Z,28.05
2017-08-07T10:25:42.459Z,28.03
2017-08-07T10:28:13.608Z,27.93
2017-08-07T10:30:45.202Z,27.94
2017-08-07T10:33:16.360Z,28.04
2017-08-07T10:35:47.528Z,28.32
2017-08-07T10:38:18.992Z,28.39
2017-08-07T10:40:50.298Z,28.42
2017-08-07T10:43:21.793Z,28.66
2017-08-07T10:45:53.392Z,28.89
2017-08-07T10:48:24.748Z,28.88
2017-08-07T10:50:55.906Z,28.96
2017-08-07T10:53:27.416Z,29.04
2017-08-07T10:55:58.534Z,29.18
2017-08-07T10:58:29.684Z,29.40
2017-08-07T11:01:01.014Z,29.47
2017-08-07T11:03:32.502Z,29.55
2017-08-07T11:06:04.676Z,29.93
2017-08-07T11:08:36.229Z,29.95
2017-08-07T11:11:07.417Z,30.26
2017-08-07T11:13:38.769Z,30.35
2017-08-07T11:16:10.496Z,30.61
2017-08-07T11:18:41.718Z,30.64
2017-08-07T11:21:13.775Z,30.95
2017-08-07T11:23:45.514Z,31.10
2017-08-07T11:26:17.286Z,30.85
2017-08-07T11:28:48.673Z,31.21
2017-08-07T11:31:19.765Z,31.35
2017-08-07T11:33:50.829Z,31.71
2017-08-07T11:36:22.255Z,32.11
2017-08-07T11:38:53.339Z,32.06
2017-08-07T11:41:24.384Z,32.00
2017-08-07T11:43:55.716Z,31.96
2017-08-07T11:46:26.775Z,32.52
2017-08-07T11:48:58.001Z,32.91
2017-08-07T11:51:29.463Z,32.71
2017-08-07T11:54:00.569Z,33.11
2017-08-07T11:56:31.916Z,33.10
2017-08-07T11:59:02.993Z,33.37
2017-08-07T12:01:34.217Z,33.59
2017-08-07T12:04:06.542Z,33.90
2017-08-07T12:06:37.544Z,34.08
2017-08-07T12:09:08.548Z,33.82
2017-08-07T12:11:40.035Z,34.00
2017-08-07T12:14:11.082Z,33.96
2017-08-07T12:16:42.368Z,34.20
2017-08-07T12:19:13.428Z,34.42
2017-08-07T12:24:45.233Z,34.76
2017-08-07T12:27:16.270Z,34.96
2017-08-07T12:29:47.584Z,34.92
2017-08-07T12:32:19.023Z,35.10
2017-08-07T12:34:50.060Z,35.67
2017-08-07T12:37:21.068Z,36.00
2017-08-07T12:39:52.408Z,35.91
2017-08-07T12:42:23.457Z,35.89
2017-08-07T12:44:54.588Z,35.93
2017-08-07T12:47:25.992Z,36.20
2017-08-07T12:49:57.140Z,36.28
2017-08-07T12:52:28.440Z,36.55
2017-08-07T12:54:59.533Z,36.88
2017-08-07T12:57:30.764Z,36.79
2017-08-07T13:00:02.956Z,37.50
2017-08-07T13:02:33.988Z,38.42
2017-08-07T13:05:05.172Z,39.32
2017-08-07T13:07:36.392Z,40.29
2017-08-07T13:10:07.709Z,41.08
2017-08-07T13:12:39.337Z,41.18
2017-08-07T13:15:10.450Z,41.56
2017-08-07T13:20:02.826Z,42.85
2017-08-07T13:22:34.147Z,43.33
2017-08-07T13:25:05.324Z,43.83
2017-08-07T13:27:36.852Z,44.33
2017-08-07T13:30:07.919Z,44.67
2017-08-07T13:32:39.034Z,44.70
2017-08-07T13:35:10.572Z,45.60
2017-08-07T13:37:41.757Z,45.99
2017-08-07T13:40:13.121Z,48.20
2017-08-07T13:42:44.211Z,48.55
2017-08-07T13:45:15.314Z,49.62
2017-08-07T13:47:46.813Z,49.72
2017-08-07T13:50:18.003Z,49.65
2017-08-07T13:52:49.125Z,49.88
2017-08-07T13:55:20.606Z,51.09
2017-08-07T13:57:51.715Z,50.25
2017-08-07T14:00:23.044Z,51.66
2017-08-07T14:02:54.123Z,52.82
2017-08-07T14:05:25.340Z,51.79
2017-08-07T14:07:57.005Z,51.84
2017-08-07T14:10:28.148Z,52.82
2017-08-07T14:12:59.234Z,52.55
2017-08-07T14:15:30.968Z,53.69
2017-08-07T14:18:02.580Z,53.90
2017-08-07T14:20:34.188Z,54.37
2017-08-07T14:23:05.478Z,54.52
2017-08-07T14:25:36.737Z,54.97
2017-08-07T14:28:08.256Z,55.14
2017-08-07T14:30:39.465Z,54.82
2017-08-07T14:33:10.576Z,54.28
2017-08-07T14:35:42.328Z,54.40
2017-08-07T14:38:13.430Z,54.91
2017-08-07T14:40:44.542Z,53.93
2017-08-07T14:43:16.205Z,53.83
2017-08-07T14:45:47.378Z,53.07
2017-08-07T14:48:18.757Z,53.16
2017-08-07T14:50:49.874Z,53.85
2017-08-07T14:53:21.641Z,54.61
2017-08-07T14:55:53.377Z,55.79
2017-08-07T14:58:24.563Z,54.84
2017-08-07T15:00:55.787Z,54.27
2017-08-07T15:03:27.604Z,53.82
2017-08-07T15:05:58.713Z,53.17
2017-08-07T15:08:30.034Z,53.49
2017-08-07T15:11:01.179Z,53.15
2017-08-07T15:13:32.194Z,53.96
2017-08-07T15:16:03.970Z,53.50
2017-08-07T15:18:34.982Z,52.09
2017-08-07T15:21:06.530Z,53.92
2017-08-07T15:23:37.530Z,53.12
2017-08-07T15:26:08.601Z,53.57
2017-08-07T15:28:39.696Z,53.18
2017-08-07T15:31:10.703Z,53.59
2017-08-07T15:33:42.118Z,53.27
2017-08-07T15:36:13.145Z,52.04
2017-08-07T15:38:44.148Z,53.44
2017-08-07T15:41:15.171Z,52.93
2017-08-07T15:43:46.176Z,52.51
2017-08-07T15:46:17.194Z,53.31
2017-08-07T15:48:48.720Z,51.61
2017-08-07T15:51:19.786Z,53.00
2017-08-07T15:53:50.877Z,53.57
2017-08-07T15:56:22.234Z,52.62
2017-08-07T15:58:53.265Z,53.67
2017-08-07T16:01:24.655Z,53.07
2017-08-07T16:03:55.711Z,53.45
2017-08-07T16:06:27.104Z,53.03
2017-08-07T16:08:58.160Z,51.49
2017-08-07T16:11:29.231Z,51.68
2017-08-07T16:14:00.832Z,52.40
2017-08-07T16:16:31.877Z,52.52
2017-08-07T16:19:03.221Z,52.58
2017-08-07T16:21:34.240Z,51.54
2017-08-07T16:24:06.037Z,51.17
2017-08-07T16:26:37.382Z,50.58
2017-08-07T16:29:08.393Z,50.48
2017-08-07T16:31:39.459Z,50.62
2017-08-07T16:34:10.524Z,49.53
2017-08-07T16:36:41.599Z,49.14
2017-08-07T16:39:12.983Z,48.16
2017-08-07T16:41:43.989Z,47.90
2017-08-07T16:44:15.055Z,46.80
2017-08-07T16:46:46.140Z,46.86
2017-08-07T16:49:17.172Z,47.09
2017-08-07T16:51:49.685Z,47.22
2017-08-07T16:54:20.805Z,46.76
2017-08-07T16:56:51.842Z,46.32
2017-08-07T16:59:23.227Z,45.07
2017-08-07T17:01:54.319Z,44.47
2017-08-07T17:04:25.426Z,42.86
2017-08-07T17:06:57.077Z,41.34
2017-08-07T17:09:28.189Z,40.89
2017-08-07T17:11:59.240Z,39.95
2017-08-07T17:14:30.604Z,38.81
2017-08-07T17:17:01.706Z,38.04
2017-08-07T17:19:33.107Z,37.21
2017-08-07T17:22:04.936Z,36.86
2017-08-07T17:24:36.052Z,36.79
2017-08-07T17:27:07.158Z,35.94
2017-08-07T17:29:38.210Z,35.62
2017-08-07T17:32:09.755Z,35.05
2017-08-07T17:34:40.819Z,34.73
2017-08-07T17:37:11.840Z,34.46
2017-08-07T17:39:42.915Z,34.14
2017-08-07T17:42:13.948Z,33.71
2017-08-07T17:44:45.232Z,33.65
2017-08-07T17:47:16.243Z,33.10
2017-08-07T17:49:47.344Z,32.93
2017-08-07T17:52:18.352Z,32.53
2017-08-07T17:54:49.428Z,32.40
2017-08-07T17:57:20.949Z,32.24
2017-08-07T17:59:52.045Z,32.11
2017-08-07T18:02:23.106Z,31.84
2017-08-07T18:04:54.628Z,31.79
2017-08-07T18:07:25.747Z,31.66
2017-08-07T18:09:57.135Z,31.43
2017-08-07T18:12:29.367Z,31.25
2017-08-07T18:15:00.483Z,31.09
2017-08-07T18:17:32.960Z,30.96
2017-08-07T18:20:04.517Z,30.82
2017-08-07T18:22:35.578Z,30.73
2017-08-07T18:25:07.160Z,30.57
2017-08-07T18:27:38.263Z,30.50
2017-08-07T18:30:09.557Z,30.35
2017-08-07T18:32:40.633Z,30.14
2017-08-07T18:35:11.735Z,30.06
2017-08-07T18:37:43.105Z,29.94
2017-08-07T18:40:14.270Z,29.81
2017-08-07T18:42:45.281Z,29.70
2017-08-07T18:45:16.333Z,29.52
2017-08-07T18:47:47.490Z,29.41
2017-08-07T18:50:19.017Z,29.28
2017-08-07T18:52:50.066Z,29.20
2017-08-07T18:55:21.533Z,29.10
2017-08-07T18:57:52.750Z,28.93
2017-08-07T19:00:23.834Z,28.83
2017-08-07T19:02:55.367Z,28.72
2017-08-07T19:05:26.519Z,28.63
2017-08-07T19:07:57.654Z,28.51
2017-08-07T19:10:28.864Z,28.40
2017-08-07T19:12:59.975Z,28.35
2017-08-07T19:15:31.347Z,28.26
2017-08-07T19:18:02.935Z,28.15
2017-08-07T19:20:34.308Z,28.12
2017-08-07T19:23:05.607Z,28.06
2017-08-07T19:25:36.807Z,27.98
2017-08-07T19:28:08.309Z,27.87
2017-08-07T19:30:39.318Z,27.74
2017-08-07T19:33:10.354Z,27.72
2017-08-07T19:35:41.746Z,27.64
2017-08-07T19:38:12.824Z,27.53
2017-08-07T19:40:43.857Z,27.50
2017-08-07T19:43:16.209Z,27.46
2017-08-07T19:45:47.252Z,27.32
2017-08-07T19:48:19.124Z,27.24
2017-08-07T19:50:50.150Z,27.13
2017-08-07T19:53:21.291Z,27.02
2017-08-07T19:55:52.827Z,26.91
2017-08-07T19:58:23.882Z,26.79
2017-08-07T20:00:55.045Z,26.67
2017-08-07T20:03:26.118Z,26.62
2017-08-07T20:05:57.176Z,26.55
2017-08-07T20:08:28.854Z,26.52
2017-08-07T20:10:59.928Z,26.50
2017-08-07T20:13:30.949Z,26.43
2017-08-07T20:16:02.870Z,26.36
2017-08-07T20:18:33.903Z,26.30
2017-08-07T20:21:05.446Z,26.25
2017-08-07T20:23:36.502Z,26.20
2017-08-07T20:26:07.572Z,26.15
2017-08-07T20:28:39.126Z,26.10
2017-08-07T20:31:10.222Z,26.06
2017-08-07T20:33:41.541Z,26.01
2017-08-07T20:36:12.660Z,25.98
2017-08-07T20:38:43.713Z,25.92
2017-08-07T20:41:15.151Z,25.89
2017-08-07T20:43:46.161Z,25.78
2017-08-07T20:46:17.296Z,25.70
2017-08-07T20:48:49.358Z,25.69
2017-08-07T20:51:20.457Z,25.65
2017-08-07T20:53:51.520Z,25.62
2017-08-07T20:56:22.968Z,25.55
2017-08-07T20:58:54.000Z,25.50
2017-08-07T21:01:25.002Z,25.46
2017-08-07T21:03:56.435Z,25.44
2017-08-07T21:06:27.491Z,25.39
2017-08-07T21:08:58.525Z,25.34
2017-08-07T21:11:30.067Z,25.29
2017-08-07T21:14:01.109Z,25.27
2017-08-07T21:16:32.159Z,25.25
2017-08-07T21:19:03.555Z,25.20
2017-08-07T21:21:34.601Z,25.16
2017-08-07T21:24:06.398Z,25.12
2017-08-07T21:26:37.423Z,25.05
2017-08-07T21:29:08.531Z,25.03
2017-08-07T21:31:39.847Z,25.02
2017-08-07T21:34:10.902Z,25.00
2017-08-07T21:36:41.938Z,24.99
2017-08-07T21:39:13.346Z,24.92
2017-08-07T21:41:44.352Z,24.88
2017-08-07T21:44:15.468Z,24.86
2017-08-07T21:46:46.951Z,24.82
2017-08-07T21:49:17.967Z,24.77
2017-08-07T21:51:49.250Z,24.74
2017-08-07T21:54:20.311Z,24.70
2017-08-07T21:56:51.303Z,24.69
2017-08-07T21:59:22.821Z,24.70
2017-08-07T22:01:53.841Z,24.69
2017-08-07T22:04:24.888Z,24.65
2017-08-07T22:06:56.275Z,24.55
2017-08-07T22:09:27.292Z,24.51
2017-08-07T22:11:58.292Z,24.47
2017-08-07T22:14:29.314Z,24.43
2017-08-07T22:17:00.361Z,24.37
2017-08-07T22:19:31.870Z,24.31
2017-08-07T22:22:04.709Z,24.25
2017-08-07T22:24:35.721Z,24.21
2017-08-07T22:27:06.820Z,24.17
2017-08-07T22:29:37.880Z,24.12
2017-08-07T22:32:09.471Z,24.08
2017-08-07T22:34:40.540Z,24.06
2017-08-07T22:37:11.575Z,24.00
2017-08-07T22:39:42.639Z,23.96
2017-08-07T22:42:13.709Z,23.93
2017-08-07T22:44:45.132Z,23.91
2017-08-07T22:47:16.151Z,23.88
2017-08-07T22:49:47.187Z,23.86
2017-08-07T22:52:18.498Z,23.82
2017-08-07T22:54:49.490Z,23.79
2017-08-07T22:57:20.522Z,23.81
2017-08-07T22:59:51.854Z,23.82
2017-08-07T23:02:23.047Z,23.77
2017-08-07T23:04:54.154Z,23.74
2017-08-07T23:07:25.622Z,23.71
2017-08-07T23:09:56.665Z,23.66
2017-08-07T23:12:27.725Z,23.63
2017-08-07T23:14:59.309Z,23.65
2017-08-07T23:17:30.435Z,23.64
2017-08-07T23:20:03.111Z,23.62
2017-08-07T23:22:34.580Z,23.62
2017-08-07T23:25:05.579Z,23.61
2017-08-07T23:27:36.959Z,23.57
2017-08-07T23:30:08.699Z,23.54
2017-08-07T23:32:39.771Z,23.49
2017-08-07T23:35:10.843Z,23.46
2017-08-07T23:37:42.259Z,23.43
2017-08-07T23:40:13.335Z,23.42
2017-08-07T23:42:44.464Z,23.37
2017-08-07T23:45:15.481Z,23.33
2017-08-07T23:47:46.538Z,23.28
2017-08-07T23:50:17.957Z,23.23
2017-08-07T23:52:49.041Z,23.18
2017-08-07T23:55:20.434Z,23.15
2017-08-07T23:57:51.584Z,23.13
